Mocarter, Mississippi
Current Conditions -  °F | °C
As of 7:35 AM on Saturday 20 Dec 2014 (Local Time) from KUTA Reporting Station
Overcast Overcast  
Wind Chill: 37°   Ceiling: 6000
Heat Index: 37°   Visibility: 7mi
Dew Point: 34°   Wind: 3mph
Humidity: 87%   Direction: 30°NNE
Pressure: 30.28"   Gusts: NA
Location:  34.8092°N, 90.3159°W
Report Text: KUTA 201335Z AUTO 03003KT 7SM OVC060 03/01 A3028 RMK AO2
Loading
Personal Weather Stations






























Interactive Weather Map New forecast layout! Learn more

10-Day Weather Forecast

Advertisements
Track Severe Weather on mobile